sensor_id;sensor_type;location;lat;lon;timestamp;pressure;altitude;pressure_sealevel;temperature;humidity
36222;BME280;22266;52.340;4.962;2023-07-20T00:01:50;101483.63;;;17.98;70.39
36222;BME280;22266;52.340;4.962;2023-07-20T00:04:35;101474.03;;;17.96;70.10
36222;BME280;22266;52.340;4.962;2023-07-20T00:07:01;101467.13;;;17.93;70.12
36222;BME280;22266;52.340;4.962;2023-07-20T00:09:28;101475.31;;;17.93;70.21
36222;BME280;22266;52.340;4.962;2023-07-20T00:11:55;101475.31;;;17.93;70.45
36222;BME280;22266;52.340;4.962;2023-07-20T00:14:21;101475.31;;;17.93;70.19
36222;BME280;22266;52.340;4.962;2023-07-20T00:16:50;101477.44;;;17.91;70.34
36222;BME280;22266;52.340;4.962;2023-07-20T00:19:26;101482.88;;;17.91;70.39
36222;BME280;22266;52.340;4.962;2023-07-20T00:21:54;101477.06;;;17.88;70.48
36222;BME280;22266;52.340;4.962;2023-07-20T00:24:21;101477.88;;;17.88;70.58
36222;BME280;22266;52.340;4.962;2023-07-20T00:26:47;101474.53;;;17.86;70.64
36222;BME280;22266;52.340;4.962;2023-07-20T00:29:14;101467.44;;;17.85;70.38
36222;BME280;22266;52.340;4.962;2023-07-20T00:31:41;101471.22;;;17.84;70.79
36222;BME280;22266;52.340;4.962;2023-07-20T00:34:08;101478.78;;;17.82;70.49
36222;BME280;22266;52.340;4.962;2023-07-20T00:36:35;101475.47;;;17.80;70.70
36222;BME280;22266;52.340;4.962;2023-07-20T00:39:02;101472.97;;;17.78;70.47
36222;BME280;22266;52.340;4.962;2023-07-20T00:41:29;101463.59;;;17.74;70.70
36222;BME280;22266;52.340;4.962;2023-07-20T00:43:56;101461.28;;;17.71;70.68
36222;BME280;22266;52.340;4.962;2023-07-20T00:46:23;101459.84;;;17.69;70.55
36222;BME280;22266;52.340;4.962;2023-07-20T00:48:52;101466.34;;;17.68;70.82
36222;BME280;22266;52.340;4.962;2023-07-20T00:51:21;101457.34;;;17.67;70.57
36222;BME280;22266;52.340;4.962;2023-07-20T00:53:47;101460.28;;;17.66;70.75
36222;BME280;22266;52.340;4.962;2023-07-20T00:56:15;101453.41;;;17.63;70.54
36222;BME280;22266;52.340;4.962;2023-07-20T00:58:42;101457.19;;;17.62;70.65
36222;BME280;22266;52.340;4.962;2023-07-20T01:01:08;101458.47;;;17.60;70.81
36222;BME280;22266;52.340;4.962;2023-07-20T01:03:35;101465.00;;;17.59;70.92
36222;BME280;22266;52.340;4.962;2023-07-20T01:09:02;101464.38;;;17.57;70.52
36222;BME280;22266;52.340;4.962;2023-07-20T01:11:40;101474.44;;;17.56;70.40
36222;BME280;22266;52.340;4.962;2023-07-20T01:14:10;101473.81;;;17.54;70.35
36222;BME280;22266;52.340;4.962;2023-07-20T01:16:38;101471.31;;;17.52;70.62
36222;BME280;22266;52.340;4.962;2023-07-20T01:19:04;101472.59;;;17.50;70.49
36222;BME280;22266;52.340;4.962;2023-07-20T01:21:37;101475.53;;;17.48;70.52
36222;BME280;22266;52.340;4.962;2023-07-20T01:30:16;101467.91;;;17.39;70.55
36222;BME280;22266;52.340;4.962;2023-07-20T01:32:47;101473.56;;;17.37;70.45
36222;BME280;22266;52.340;4.962;2023-07-20T01:35:15;101464.56;;;17.37;70.64
36222;BME280;22266;52.340;4.962;2023-07-20T01:37:44;101467.53;;;17.35;70.60
36222;BME280;22266;52.340;4.962;2023-07-20T01:40:14;101465.88;;;17.34;70.85
36222;BME280;22266;52.340;4.962;2023-07-20T01:42:45;101466.69;;;17.35;70.52
36222;BME280;22266;52.340;4.962;2023-07-20T01:45:12;101465.00;;;17.34;70.66
36222;BME280;22266;52.340;4.962;2023-07-20T01:47:39;101469.63;;;17.33;70.54
36222;BME280;22266;52.340;4.962;2023-07-20T01:50:06;101467.38;;;17.30;70.80
36222;BME280;22266;52.340;4.962;2023-07-20T01:52:33;101464.84;;;17.28;70.80
36222;BME280;22266;52.340;4.962;2023-07-20T01:54:59;101472.41;;;17.26;70.67
36222;BME280;22266;52.340;4.962;2023-07-20T01:57:26;101466.16;;;17.26;70.68
36222;BME280;22266;52.340;4.962;2023-07-20T01:59:52;101459.03;;;17.25;70.47
36222;BME280;22266;52.340;4.962;2023-07-20T02:02:19;101465.53;;;17.24;70.79
36222;BME280;22266;52.340;4.962;2023-07-20T02:04:47;101460.53;;;17.21;70.67
36222;BME280;22266;52.340;4.962;2023-07-20T02:07:13;101462.03;;;17.17;70.57
36222;BME280;22266;52.340;4.962;2023-07-20T02:09:40;101466.63;;;17.16;70.55
36222;BME280;22266;52.340;4.962;2023-07-20T02:12:07;101475.22;;;17.13;70.64
36222;BME280;22266;52.340;4.962;2023-07-20T02:14:33;101471.91;;;17.11;70.66
36222;BME280;22266;52.340;4.962;2023-07-20T02:17:00;101470.25;;;17.10;70.44
36222;BME280;22266;52.340;4.962;2023-07-20T02:19:29;101470.94;;;17.05;70.67
36222;BME280;22266;52.340;4.962;2023-07-20T02:21:56;101471.13;;;17.04;70.72
36222;BME280;22266;52.340;4.962;2023-07-20T02:24:23;101474.09;;;17.02;71.01
36222;BME280;22266;52.340;4.962;2023-07-20T02:26:49;101473.69;;;16.99;70.91
36222;BME280;22266;52.340;4.962;2023-07-20T02:29:16;101469.31;;;16.98;70.53
36222;BME280;22266;52.340;4.962;2023-07-20T02:31:42;101467.84;;;16.95;70.61
36222;BME280;22266;52.340;4.962;2023-07-20T02:34:09;101467.22;;;16.93;70.72
36222;BME280;22266;52.340;4.962;2023-07-20T02:36:36;101465.81;;;16.91;70.79
36222;BME280;22266;52.340;4.962;2023-07-20T02:39:02;101471.25;;;16.91;70.86
36222;BME280;22266;52.340;4.962;2023-07-20T02:41:32;101468.72;;;16.89;70.73
36222;BME280;22266;52.340;4.962;2023-07-20T02:43:58;101477.13;;;16.88;71.03
36222;BME280;22266;52.340;4.962;2023-07-20T02:46:25;101475.47;;;16.87;70.91
36222;BME280;22266;52.340;4.962;2023-07-20T02:48:51;101468.56;;;16.84;70.74
36222;BME280;22266;52.340;4.962;2023-07-20T02:51:18;101473.41;;;16.82;70.92
36222;BME280;22266;52.340;4.962;2023-07-20T02:53:44;101489.91;;;16.80;70.89
36222;BME280;22266;52.340;4.962;2023-07-20T02:56:11;101485.53;;;16.79;70.89
36222;BME280;22266;52.340;4.962;2023-07-20T02:58:41;101489.09;;;16.80;70.70
36222;BME280;22266;52.340;4.962;2023-07-20T03:01:09;101491.22;;;16.78;70.79
36222;BME280;22266;52.340;4.962;2023-07-20T03:03:37;101495.19;;;16.75;70.26
36222;BME280;22266;52.340;4.962;2023-07-20T03:06:05;101494.38;;;16.75;70.25
36222;BME280;22266;52.340;4.962;2023-07-20T03:08:32;101489.31;;;16.72;70.50
36222;BME280;22266;52.340;4.962;2023-07-20T03:10:58;101499.59;;;16.70;70.45
36222;BME280;22266;52.340;4.962;2023-07-20T03:13:25;101495.66;;;16.66;70.38
36222;BME280;22266;52.340;4.962;2023-07-20T03:15:53;101497.75;;;16.64;70.73
36222;BME280;22266;52.340;4.962;2023-07-20T03:18:19;101493.59;;;16.61;70.09
36222;BME280;22266;52.340;4.962;2023-07-20T03:20:46;101497.13;;;16.62;69.99
36222;BME280;22266;52.340;4.962;2023-07-20T03:23:12;101498.41;;;16.59;70.06
36222;BME280;22266;52.340;4.962;2023-07-20T03:25:39;101512.81;;;16.60;69.88
36222;BME280;22266;52.340;4.962;2023-07-20T03:28:06;101510.31;;;16.58;69.93
36222;BME280;22266;52.340;4.962;2023-07-20T03:30:34;101507.59;;;16.58;69.77
36222;BME280;22266;52.340;4.962;2023-07-20T03:33:04;101511.59;;;16.55;70.01
36222;BME280;22266;52.340;4.962;2023-07-20T03:35:31;101512.88;;;16.53;69.68
36222;BME280;22266;52.340;4.962;2023-07-20T03:37:58;101517.69;;;16.51;69.81
36222;BME280;22266;52.340;4.962;2023-07-20T03:40:25;101517.06;;;16.49;69.85
36222;BME280;22266;52.340;4.962;2023-07-20T03:42:52;101521.88;;;16.47;70.06
36222;BME280;22266;52.340;4.962;2023-07-20T03:45:18;101523.13;;;16.44;69.95
36222;BME280;22266;52.340;4.962;2023-07-20T03:47:45;101510.84;;;16.42;70.06
36222;BME280;22266;52.340;4.962;2023-07-20T03:50:14;101516.69;;;16.39;70.02
36222;BME280;22266;52.340;4.962;2023-07-20T03:52:41;101506.25;;;16.36;69.99
36222;BME280;22266;52.340;4.962;2023-07-20T03:55:10;101513.78;;;16.34;69.90
36222;BME280;22266;52.340;4.962;2023-07-20T03:57:36;101513.78;;;16.34;70.06
36222;BME280;22266;52.340;4.962;2023-07-20T04:00:03;101514.81;;;16.32;69.78
36222;BME280;22266;52.340;4.962;2023-07-20T04:02:38;101520.72;;;16.29;69.50
36222;BME280;22266;52.340;4.962;2023-07-20T04:05:04;101515.47;;;16.28;69.27
36222;BME280;22266;52.340;4.962;2023-07-20T04:07:31;101514.22;;;16.30;69.89
36222;BME280;22266;52.340;4.962;2023-07-20T04:09:57;101526.16;;;16.29;69.70
36222;BME280;22266;52.340;4.962;2023-07-20T04:12:24;101527.81;;;16.30;69.88
36222;BME280;22266;52.340;4.962;2023-07-20T04:14:50;101522.59;;;16.29;69.74
36222;BME280;22266;52.340;4.962;2023-07-20T04:17:18;101522.78;;;16.27;69.73
36222;BME280;22266;52.340;4.962;2023-07-20T04:19:44;101530.34;;;16.25;69.36
36222;BME280;22266;52.340;4.962;2023-07-20T04:22:11;101524.28;;;16.23;69.85
36222;BME280;22266;52.340;4.962;2023-07-20T04:24:37;101528.28;;;16.21;69.89
36222;BME280;22266;52.340;4.962;2023-07-20T04:27:04;101529.53;;;16.18;69.81
36222;BME280;22266;52.340;4.962;2023-07-20T04:29:31;101533.28;;;16.17;70.14
36222;BME280;22266;52.340;4.962;2023-07-20T04:31:57;101527.22;;;16.15;70.33
36222;BME280;22266;52.340;4.962;2023-07-20T04:34:24;101535.59;;;16.14;70.00
36222;BME280;22266;52.340;4.962;2023-07-20T04:36:50;101535.78;;;16.12;69.94
36222;BME280;22266;52.340;4.962;2023-07-20T04:39:17;101544.81;;;16.13;70.42
36222;BME280;22266;52.340;4.962;2023-07-20T04:41:59;101543.13;;;16.12;70.16
36222;BME280;22266;52.340;4.962;2023-07-20T04:44:25;101541.22;;;16.12;70.06
36222;BME280;22266;52.340;4.962;2023-07-20T04:46:52;101532.25;;;16.12;70.14
36222;BME280;22266;52.340;4.962;2023-07-20T04:49:19;101543.94;;;16.12;70.01
36222;BME280;22266;52.340;4.962;2023-07-20T04:51:46;101543.53;;;16.15;70.04
36222;BME280;22266;52.340;4.962;2023-07-20T04:54:13;101547.72;;;16.18;70.26
36222;BME280;22266;52.340;4.962;2023-07-20T04:56:40;101546.44;;;16.20;70.15
36222;BME280;22266;52.340;4.962;2023-07-20T04:59:09;101564.41;;;16.21;70.00
36222;BME280;22266;52.340;4.962;2023-07-20T05:01:36;101555.63;;;16.19;70.10
36222;BME280;22266;52.340;4.962;2023-07-20T05:04:02;101555.22;;;16.22;70.23
36222;BME280;22266;52.340;4.962;2023-07-20T05:06:29;101547.66;;;16.24;70.05
36222;BME280;22266;52.340;4.962;2023-07-20T05:08:55;101552.69;;;16.27;70.53
36222;BME280;22266;52.340;4.962;2023-07-20T05:11:22;101552.25;;;16.30;70.19
36222;BME280;22266;52.340;4.962;2023-07-20T05:13:49;101550.16;;;16.32;70.04
36222;BME280;22266;52.340;4.962;2023-07-20T05:16:16;101549.13;;;16.34;69.76
36222;BME280;22266;52.340;4.962;2023-07-20T05:18:43;101552.44;;;16.36;69.98
36222;BME280;22266;52.340;4.962;2023-07-20T05:21:10;101550.34;;;16.38;69.64
36222;BME280;22266;52.340;4.962;2023-07-20T05:23:37;101558.50;;;16.38;69.33
36222;BME280;22266;52.340;4.962;2023-07-20T05:26:04;101546.59;;;16.39;69.59
36222;BME280;22266;52.340;4.962;2023-07-20T05:28:31;101552.44;;;16.42;69.99
36222;BME280;22266;52.340;4.962;2023-07-20T05:30:58;101554.91;;;16.44;69.93
36222;BME280;22266;52.340;4.962;2023-07-20T05:33:26;101553.88;;;16.45;69.68
36222;BME280;22266;52.340;4.962;2023-07-20T05:35:52;101558.03;;;16.47;69.46
36222;BME280;22266;52.340;4.962;2023-07-20T05:38:19;101553.00;;;16.51;69.34
36222;BME280;22266;52.340;4.962;2023-07-20T05:40:45;101557.13;;;16.60;69.80
36222;BME280;22266;52.340;4.962;2023-07-20T05:43:13;101544.13;;;16.75;69.55
36222;BME280;22266;52.340;4.962;2023-07-20T05:45:43;101550.31;;;16.89;68.49
36222;BME280;22266;52.340;4.962;2023-07-20T05:48:11;101552.13;;;17.02;67.43
36222;BME280;22266;52.340;4.962;2023-07-20T05:50:42;101553.94;;;17.15;66.87
36222;BME280;22266;52.340;4.962;2023-07-20T05:53:09;101552.34;;;17.25;66.35
36222;BME280;22266;52.340;4.962;2023-07-20T05:55:35;101555.59;;;17.41;66.22
36222;BME280;22266;52.340;4.962;2023-07-20T05:58:02;101556.78;;;17.51;65.27
36222;BME280;22266;52.340;4.962;2023-07-20T06:00:30;101551.03;;;17.60;64.00
36222;BME280;22266;52.340;4.962;2023-07-20T06:02:56;101554.06;;;17.70;63.44
36222;BME280;22266;52.340;4.962;2023-07-20T06:05:23;101553.22;;;17.76;63.06
36222;BME280;22266;52.340;4.962;2023-07-20T06:07:54;101554.59;;;17.85;62.51
36222;BME280;22266;52.340;4.962;2023-07-20T06:10:20;101551.56;;;17.93;62.57
36222;BME280;22266;52.340;4.962;2023-07-20T06:12:47;101545.81;;;18.01;62.70
36222;BME280;22266;52.340;4.962;2023-07-20T06:15:32;101554.00;;;18.01;61.86
36222;BME280;22266;52.340;4.962;2023-07-20T06:18:01;101548.16;;;17.98;61.70
36222;BME280;22266;52.340;4.962;2023-07-20T06:20:27;101552.78;;;17.97;61.55
36222;BME280;22266;52.340;4.962;2023-07-20T06:22:54;101547.78;;;17.94;61.24
36222;BME280;22266;52.340;4.962;2023-07-20T06:25:21;101560.19;;;17.90;61.14
36222;BME280;22266;52.340;4.962;2023-07-20T06:27:49;101556.63;;;17.90;61.11
36222;BME280;22266;52.340;4.962;2023-07-20T06:30:16;101561.03;;;17.91;61.50
36222;BME280;22266;52.340;4.962;2023-07-20T06:32:43;101559.34;;;17.90;61.59
36222;BME280;22266;52.340;4.962;2023-07-20T06:35:09;101562.56;;;17.87;61.41
36222;BME280;22266;52.340;4.962;2023-07-20T06:37:35;101558.38;;;17.84;61.33
36222;BME280;22266;52.340;4.962;2023-07-20T06:40:03;101560.31;;;17.77;61.42
36222;BME280;22266;52.340;4.962;2023-07-20T06:42:35;101554.88;;;17.77;61.93
36222;BME280;22266;52.340;4.962;2023-07-20T06:45:05;101550.66;;;17.81;62.24
36222;BME280;22266;52.340;4.962;2023-07-20T06:47:32;101558.44;;;17.77;61.86
36222;BME280;22266;52.340;4.962;2023-07-20T06:49:58;101564.34;;;17.74;61.77
36222;BME280;22266;52.340;4.962;2023-07-20T06:52:25;101562.22;;;17.76;61.70
36222;BME280;22266;52.340;4.962;2023-07-20T06:54:51;101570.22;;;17.71;61.37
36222;BME280;22266;52.340;4.962;2023-07-20T06:57:18;101565.19;;;17.68;61.78
36222;BME280;22266;52.340;4.962;2023-07-20T06:59:45;101558.31;;;17.66;61.27
36222;BME280;22266;52.340;4.962;2023-07-20T07:02:17;101566.69;;;17.64;60.80
36222;BME280;22266;52.340;4.962;2023-07-20T07:04:48;101568.38;;;17.65;60.80
36222;BME280;22266;52.340;4.962;2023-07-20T07:07:15;101564.59;;;17.66;60.80
36222;BME280;22266;52.340;4.962;2023-07-20T07:09:52;101571.09;;;17.65;60.59
36222;BME280;22266;52.340;4.962;2023-07-20T07:12:19;101566.94;;;17.63;60.51
36222;BME280;22266;52.340;4.962;2023-07-20T07:14:45;101577.34;;;17.66;60.73
36222;BME280;22266;52.340;4.962;2023-07-20T07:17:12;101573.38;;;17.68;60.57
36222;BME280;22266;52.340;4.962;2023-07-20T07:19:38;101570.06;;;17.66;59.76
36222;BME280;22266;52.340;4.962;2023-07-20T07:22:05;101576.09;;;17.68;59.69
36222;BME280;22266;52.340;4.962;2023-07-20T07:24:31;101567.53;;;17.65;59.70
36222;BME280;22266;52.340;4.962;2023-07-20T07:27:00;101574.88;;;17.64;59.56
36222;BME280;22266;52.340;4.962;2023-07-20T07:29:28;101573.38;;;17.68;59.86
36222;BME280;22266;52.340;4.962;2023-07-20T07:31:56;101570.22;;;17.71;59.58
36222;BME280;22266;52.340;4.962;2023-07-20T07:34:22;101567.66;;;17.76;59.47
36222;BME280;22266;52.340;4.962;2023-07-20T07:36:49;101571.84;;;17.79;59.45
36222;BME280;22266;52.340;4.962;2023-07-20T07:39:16;101574.78;;;17.77;58.08
36222;BME280;22266;52.340;4.962;2023-07-20T07:41:45;101575.84;;;17.76;57.78
36222;BME280;22266;52.340;4.962;2023-07-20T07:44:12;101577.72;;;17.76;57.72
36222;BME280;22266;52.340;4.962;2023-07-20T07:46:38;101567.22;;;17.79;57.46
36222;BME280;22266;52.340;4.962;2023-07-20T07:49:05;101572.44;;;17.81;56.96
36222;BME280;22266;52.340;4.962;2023-07-20T07:51:32;101581.00;;;17.85;56.54
36222;BME280;22266;52.340;4.962;2023-07-20T07:53:59;101579.94;;;17.86;56.68
36222;BME280;22266;52.340;4.962;2023-07-20T07:56:25;101590.16;;;17.90;56.78
36222;BME280;22266;52.340;4.962;2023-07-20T07:58:52;101593.25;;;17.94;57.29
36222;BME280;22266;52.340;4.962;2023-07-20T08:01:18;101596.16;;;17.99;57.03
36222;BME280;22266;52.340;4.962;2023-07-20T08:03:45;101588.59;;;18.01;57.17
36222;BME280;22266;52.340;4.962;2023-07-20T08:06:14;101587.31;;;18.03;56.46
36222;BME280;22266;52.340;4.962;2023-07-20T08:08:41;101584.59;;;18.03;56.57
36222;BME280;22266;52.340;4.962;2023-07-20T08:11:08;101589.22;;;18.03;56.34
36222;BME280;22266;52.340;4.962;2023-07-20T08:13:36;101589.56;;;18.07;56.35
36222;BME280;22266;52.340;4.962;2023-07-20T08:16:03;101582.59;;;18.11;56.07
36222;BME280;22266;52.340;4.962;2023-07-20T08:18:29;101590.72;;;18.17;55.92
36222;BME280;22266;52.340;4.962;2023-07-20T08:20:56;101590.47;;;18.19;55.56
36222;BME280;22266;52.340;4.962;2023-07-20T08:23:23;101587.69;;;18.25;55.24
36222;BME280;22266;52.340;4.962;2023-07-20T08:25:50;101578.38;;;18.33;55.57
36222;BME280;22266;52.340;4.962;2023-07-20T08:28:16;101583.75;;;18.40;55.11
36222;BME280;22266;52.340;4.962;2023-07-20T08:30:45;101580.09;;;18.46;55.31
36222;BME280;22266;52.340;4.962;2023-07-20T08:33:13;101581.19;;;18.45;55.41
36222;BME280;22266;52.340;4.962;2023-07-20T08:35:40;101580.81;;;18.41;55.61
36222;BME280;22266;52.340;4.962;2023-07-20T08:38:07;101589.03;;;18.35;55.54
36222;BME280;22266;52.340;4.962;2023-07-20T08:40:39;101587.84;;;18.31;55.75
36222;BME280;22266;52.340;4.962;2023-07-20T08:43:06;101589.59;;;18.25;55.62
36222;BME280;22266;52.340;4.962;2023-07-20T08:45:33;101589.81;;;18.23;55.83
36222;BME280;22266;52.340;4.962;2023-07-20T08:48:01;101584.00;;;18.20;55.37
36222;BME280;22266;52.340;4.962;2023-07-20T08:50:30;101592.00;;;18.15;55.06
36222;BME280;22266;52.340;4.962;2023-07-20T08:52:58;101584.28;;;18.12;55.18
36222;BME280;22266;52.340;4.962;2023-07-20T08:55:29;101592.91;;;18.09;54.73
36222;BME280;22266;52.340;4.962;2023-07-20T08:57:59;101589.50;;;18.13;54.78
36222;BME280;22266;52.340;4.962;2023-07-20T09:00:27;101593.59;;;18.22;54.40
36222;BME280;22266;52.340;4.962;2023-07-20T09:02:55;101592.69;;;18.28;53.87
36222;BME280;22266;52.340;4.962;2023-07-20T09:05:24;101572.88;;;18.40;53.51
36222;BME280;22266;52.340;4.962;2023-07-20T09:07:53;101580.88;;;18.53;53.03
36222;BME280;22266;52.340;4.962;2023-07-20T09:10:21;101581.63;;;18.60;52.43
36222;BME280;22266;52.340;4.962;2023-07-20T09:12:47;101572.97;;;18.63;52.45
36222;BME280;22266;52.340;4.962;2023-07-20T09:15:14;101576.06;;;18.67;52.59
36222;BME280;22266;52.340;4.962;2023-07-20T09:17:46;101580.78;;;18.60;52.29
36222;BME280;22266;52.340;4.962;2023-07-20T09:20:15;101575.56;;;18.58;52.18
36222;BME280;22266;52.340;4.962;2023-07-20T09:22:41;101570.72;;;18.60;52.52
36222;BME280;22266;52.340;4.962;2023-07-20T09:25:16;101576.69;;;18.69;52.19
36222;BME280;22266;52.340;4.962;2023-07-20T09:27:47;101582.13;;;18.69;51.77
36222;BME280;22266;52.340;4.962;2023-07-20T09:30:15;101584.34;;;18.60;50.53
36222;BME280;22266;52.340;4.962;2023-07-20T09:32:48;101584.50;;;18.65;50.96
36222;BME280;22266;52.340;4.962;2023-07-20T09:35:21;101577.13;;;18.66;50.46
36222;BME280;22266;52.340;4.962;2023-07-20T09:40:40;101568.59;;;18.81;49.29
36222;BME280;22266;52.340;4.962;2023-07-20T09:43:10;101579.63;;;18.86;48.92
36222;BME280;22266;52.340;4.962;2023-07-20T09:45:41;101575.38;;;18.90;48.96
36222;BME280;22266;52.340;4.962;2023-07-20T09:48:11;101573.84;;;18.94;49.01
36222;BME280;22266;52.340;4.962;2023-07-20T09:50:43;101573.38;;;18.97;48.89
36222;BME280;22266;52.340;4.962;2023-07-20T09:53:16;101575.03;;;18.98;49.02
36222;BME280;22266;52.340;4.962;2023-07-20T09:55:45;101572.44;;;19.03;49.44
36222;BME280;22266;52.340;4.962;2023-07-20T09:58:12;101573.50;;;19.02;49.33
36222;BME280;22266;52.340;4.962;2023-07-20T10:00:40;101573.50;;;19.02;49.57
36222;BME280;22266;52.340;4.962;2023-07-20T10:03:20;101572.06;;;18.99;49.54
36222;BME280;22266;52.340;4.962;2023-07-20T10:05:52;101573.97;;;18.99;50.02
36222;BME280;22266;52.340;4.962;2023-07-20T10:08:24;101571.84;;;19.01;50.30
36222;BME280;22266;52.340;4.962;2023-07-20T10:10:54;101573.97;;;18.99;50.20
36222;BME280;22266;52.340;4.962;2023-07-20T10:13:27;101570.19;;;19.00;50.13
36222;BME280;22266;52.340;4.962;2023-07-20T10:16:01;101565.78;;;18.99;49.81
36222;BME280;22266;52.340;4.962;2023-07-20T10:21:01;101562.84;;;19.00;49.88
36222;BME280;22266;52.340;4.962;2023-07-20T10:23:31;101562.34;;;19.03;50.42
36222;BME280;22266;52.340;4.962;2023-07-20T10:26:00;101563.34;;;19.09;50.86
36222;BME280;22266;52.340;4.962;2023-07-20T10:28:28;101559.28;;;19.12;51.37
36222;BME280;22266;52.340;4.962;2023-07-20T10:30:54;101567.25;;;19.13;51.41
36222;BME280;22266;52.340;4.962;2023-07-20T10:33:21;101561.56;;;19.15;51.15
36222;BME280;22266;52.340;4.962;2023-07-20T10:36:01;101561.56;;;19.15;50.04
36222;BME280;22266;52.340;4.962;2023-07-20T10:41:18;101564.53;;;19.13;49.83
36222;BME280;22266;52.340;4.962;2023-07-20T10:43:46;101559.06;;;19.13;49.99
36222;BME280;22266;52.340;4.962;2023-07-20T10:46:14;101557.75;;;19.16;50.01
36222;BME280;22266;52.340;4.962;2023-07-20T10:49:00;101560.16;;;19.12;48.83
36222;BME280;22266;52.340;4.962;2023-07-20T10:51:28;101552.88;;;19.06;49.17
36222;BME280;22266;52.340;4.962;2023-07-20T10:53:56;101558.09;;;19.08;49.69
36222;BME280;22266;52.340;4.962;2023-07-20T10:56:28;101545.06;;;19.10;50.44
36222;BME280;22266;52.340;4.962;2023-07-20T10:58:58;101554.69;;;19.12;50.82
36222;BME280;22266;52.340;4.962;2023-07-20T11:01:29;101544.97;;;19.16;50.87
36222;BME280;22266;52.340;4.962;2023-07-20T11:03:59;101550.56;;;19.21;50.73
36222;BME280;22266;52.340;4.962;2023-07-20T11:09:08;101548.66;;;19.22;50.10
36222;BME280;22266;52.340;4.962;2023-07-20T11:11:38;101551.13;;;19.23;50.45
36222;BME280;22266;52.340;4.962;2023-07-20T11:14:07;101549.75;;;19.33;50.58
36222;BME280;22266;52.340;4.962;2023-07-20T11:16:46;101551.16;;;19.47;50.90
36222;BME280;22266;52.340;4.962;2023-07-20T11:21:50;101537.09;;;19.62;50.83
36222;BME280;22266;52.340;4.962;2023-07-20T11:24:29;101550.59;;;19.80;51.21
36222;BME280;22266;52.340;4.962;2023-07-20T11:26:56;101541.31;;;19.93;50.21
36222;BME280;22266;52.340;4.962;2023-07-20T11:29:23;101538.13;;;19.96;50.28
36222;BME280;22266;52.340;4.962;2023-07-20T11:31:59;101540.50;;;20.04;50.84
36222;BME280;22266;52.340;4.962;2023-07-20T11:34:26;101536.09;;;20.15;50.79
36222;BME280;22266;52.340;4.962;2023-07-20T11:36:53;101536.66;;;20.17;50.23
36222;BME280;22266;52.340;4.962;2023-07-20T11:39:24;101534.19;;;20.15;50.01
36222;BME280;22266;52.340;4.962;2023-07-20T11:41:54;101536.69;;;20.05;49.75
36222;BME280;22266;52.340;4.962;2023-07-20T11:44:22;101526.63;;;19.94;50.25
36222;BME280;22266;52.340;4.962;2023-07-20T11:49:36;101538.84;;;19.80;51.44
36222;BME280;22266;52.340;4.962;2023-07-20T11:52:07;101535.41;;;19.84;51.28
36222;BME280;22266;52.340;4.962;2023-07-20T11:54:35;101526.00;;;19.92;50.54
36222;BME280;22266;52.340;4.962;2023-07-20T11:57:02;101523.38;;;20.09;50.15
36222;BME280;22266;52.340;4.962;2023-07-20T11:59:29;101525.25;;;20.20;50.08
36222;BME280;22266;52.340;4.962;2023-07-20T12:02:03;101522.38;;;20.27;49.20
36222;BME280;22266;52.340;4.962;2023-07-20T12:04:32;101511.06;;;20.35;48.82
36222;BME280;22266;52.340;4.962;2023-07-20T12:06:59;101517.13;;;20.37;48.67
36222;BME280;22266;52.340;4.962;2023-07-20T12:09:26;101513.47;;;20.31;48.78
36222;BME280;22266;52.340;4.962;2023-07-20T12:12:10;101515.72;;;20.34;48.29
36222;BME280;22266;52.340;4.962;2023-07-20T12:14:38;101512.97;;;20.34;48.36
36222;BME280;22266;52.340;4.962;2023-07-20T12:17:08;101523.91;;;20.34;48.18
36222;BME280;22266;52.340;4.962;2023-07-20T12:19:38;101513.94;;;20.28;48.42
36222;BME280;22266;52.340;4.962;2023-07-20T12:22:05;101513.97;;;20.16;49.04
36222;BME280;22266;52.340;4.962;2023-07-20T12:24:32;101505.19;;;20.14;49.52
36222;BME280;22266;52.340;4.962;2023-07-20T12:26:58;101510.66;;;20.14;49.42
36222;BME280;22266;52.340;4.962;2023-07-20T12:29:25;101508.41;;;20.11;49.44
36222;BME280;22266;52.340;4.962;2023-07-20T12:31:52;101505.91;;;20.10;49.81
36222;BME280;22266;52.340;4.962;2023-07-20T12:34:19;101509.69;;;20.09;50.40
36222;BME280;22266;52.340;4.962;2023-07-20T12:36:45;101509.94;;;20.07;49.75
36222;BME280;22266;52.340;4.962;2023-07-20T12:39:15;101513.63;;;20.01;49.14
36222;BME280;22266;52.340;4.962;2023-07-20T12:41:42;101514.72;;;20.00;49.54
36222;BME280;22266;52.340;4.962;2023-07-20T12:44:09;101513.41;;;20.03;49.47
36222;BME280;22266;52.340;4.962;2023-07-20T12:46:35;101510.78;;;20.08;49.53
36222;BME280;22266;52.340;4.962;2023-07-20T12:49:03;101507.78;;;20.09;49.83
36222;BME280;22266;52.340;4.962;2023-07-20T12:51:30;101514.56;;;20.18;49.40
36222;BME280;22266;52.340;4.962;2023-07-20T12:53:57;101498.69;;;20.32;47.74
36222;BME280;22266;52.340;4.962;2023-07-20T12:56:23;101497.00;;;20.43;47.74
36222;BME280;22266;52.340;4.962;2023-07-20T12:58:52;101497.56;;;20.45;47.38
36222;BME280;22266;52.340;4.962;2023-07-20T13:01:19;101503.19;;;20.50;47.36
36222;BME280;22266;52.340;4.962;2023-07-20T13:03:45;101492.34;;;20.55;47.49
36222;BME280;22266;52.340;4.962;2023-07-20T13:06:15;101496.94;;;20.66;47.61
36222;BME280;22266;52.340;4.962;2023-07-20T13:08:44;101489.00;;;20.82;46.72
36222;BME280;22266;52.340;4.962;2023-07-20T13:11:11;101484.53;;;20.92;46.09
36222;BME280;22266;52.340;4.962;2023-07-20T13:13:37;101487.47;;;21.03;46.42
36222;BME280;22266;52.340;4.962;2023-07-20T13:16:04;101485.28;;;21.05;45.64
36222;BME280;22266;52.340;4.962;2023-07-20T13:18:30;101479.56;;;21.06;44.78
36222;BME280;22266;52.340;4.962;2023-07-20T13:20:57;101489.84;;;21.16;45.06